CheckWX is a tool to help pilots better visualize weather data.  It is not intended as a substitute for an official pre-flight weather briefing.

13:39:57 UTC

KMWL METAR
Mineral Wells Airport
Mineral Wells, Texas, USA
Current

47 mins ago

KMWL 201253Z AUTO 14006KT 10SM CLR 25/21 A2994 RMK AO2 SLP122 T02500211
Observed
Jul-20 @ 12:53 UTC
Wind
  • 140° at 6 KTS
Visibility
10 SM
Flight Rules
VFR
Cloud Levels
  • Clear skies
Temperature
25°C / 77°F
Dewpoint
21°C / 70°F
Humidity
79%
Altimeter
29.94" Hg
Pressure
1013.92 hPa
Previous

2 hours ago

KMWL 201153Z AUTO 15007KT 10SM CLR 24/21 A2992 RMK AO2 SLP116 T02390211 10278 20239 53007
Observed
Jul-20 @ 11:53 UTC
Wind
  • 150° at 7 KTS
Visibility
10 SM
Flight Rules
VFR
Cloud Levels
  • Clear skies
Temperature
24°C / 75°F
Dewpoint
21°C / 70°F
Humidity
83%
Altimeter
29.92" Hg
Pressure
1013.22 hPa
Previous

3 hours ago

KMWL 201053Z AUTO 15007KT 10SM CLR 24/21 A2991 RMK AO2 SLP112 T02440211
Observed
Jul-20 @ 10:53 UTC
Wind
  • 150° at 7 KTS
Visibility
10 SM
Flight Rules
VFR
Cloud Levels
  • Clear skies
Temperature
24°C / 75°F
Dewpoint
21°C / 70°F
Humidity
83%
Altimeter
29.91" Hg
Pressure
1012.92 hPa